sensor_id;sensor_type;location;lat;lon;timestamp;P1;durP1;ratioP1;P2;durP2;ratioP2
15814;SDS011;8008;50.024;8.172;2022-12-18T04:02:25;49.23;;;16.57;;
15814;SDS011;8008;50.024;8.172;2022-12-18T04:04:59;38.13;;;15.10;;
15814;SDS011;8008;50.024;8.172;2022-12-18T04:07:31;46.00;;;16.60;;
15814;SDS011;8008;50.024;8.172;2022-12-18T04:10:00;46.03;;;16.33;;
15814;SDS011;8008;50.024;8.172;2022-12-18T04:12:30;47.03;;;16.70;;
15814;SDS011;8008;50.024;8.172;2022-12-18T04:14:59;53.17;;;16.87;;
15814;SDS011;8008;50.024;8.172;2022-12-18T04:17:28;47.47;;;16.57;;
15814;SDS011;8008;50.024;8.172;2022-12-18T04:19:56;47.37;;;16.63;;
15814;SDS011;8008;50.024;8.172;2022-12-18T04:22:24;48.97;;;15.80;;
15814;SDS011;8008;50.024;8.172;2022-12-18T04:24:57;43.47;;;15.97;;
15814;SDS011;8008;50.024;8.172;2022-12-18T04:27:33;44.57;;;17.03;;
15814;SDS011;8008;50.024;8.172;2022-12-18T04:30:03;52.43;;;17.57;;
15814;SDS011;8008;50.024;8.172;2022-12-18T04:32:34;39.43;;;15.43;;
15814;SDS011;8008;50.024;8.172;2022-12-18T04:35:02;43.30;;;16.03;;
15814;SDS011;8008;50.024;8.172;2022-12-18T04:37:33;41.60;;;15.43;;
15814;SDS011;8008;50.024;8.172;2022-12-18T04:40:01;40.63;;;14.83;;
15814;SDS011;8008;50.024;8.172;2022-12-18T04:42:38;40.50;;;16.10;;
15814;SDS011;8008;50.024;8.172;2022-12-18T04:45:07;43.07;;;16.37;;
15814;SDS011;8008;50.024;8.172;2022-12-18T04:47:37;40.50;;;16.30;;
15814;SDS011;8008;50.024;8.172;2022-12-18T04:50:05;36.83;;;14.37;;
15814;SDS011;8008;50.024;8.172;2022-12-18T04:52:33;36.47;;;14.80;;
15814;SDS011;8008;50.024;8.172;2022-12-18T04:55:02;35.23;;;14.40;;
15814;SDS011;8008;50.024;8.172;2022-12-18T04:57:30;36.40;;;14.17;;
15814;SDS011;8008;50.024;8.172;2022-12-18T04:59:58;38.70;;;15.57;;
15814;SDS011;8008;50.024;8.172;2022-12-18T05:02:26;42.47;;;14.93;;
15814;SDS011;8008;50.024;8.172;2022-12-18T05:04:56;36.67;;;14.67;;
15814;SDS011;8008;50.024;8.172;2022-12-18T05:07:23;35.23;;;15.17;;
15814;SDS011;8008;50.024;8.172;2022-12-18T05:09:52;48.70;;;15.27;;
15814;SDS011;8008;50.024;8.172;2022-12-18T05:12:20;46.50;;;15.97;;
15814;SDS011;8008;50.024;8.172;2022-12-18T05:14:47;47.27;;;15.37;;
15814;SDS011;8008;50.024;8.172;2022-12-18T05:17:15;49.73;;;17.07;;
15814;SDS011;8008;50.024;8.172;2022-12-18T05:19:43;49.97;;;16.23;;
15814;SDS011;8008;50.024;8.172;2022-12-18T05:22:12;66.70;;;16.57;;
15814;SDS011;8008;50.024;8.172;2022-12-18T05:24:40;77.37;;;17.20;;
15814;SDS011;8008;50.024;8.172;2022-12-18T05:27:08;77.57;;;17.27;;
15814;SDS011;8008;50.024;8.172;2022-12-18T05:29:36;115.00;;;17.27;;
15814;SDS011;8008;50.024;8.172;2022-12-18T05:32:04;61.50;;;16.60;;
15814;SDS011;8008;50.024;8.172;2022-12-18T05:34:32;98.90;;;17.87;;
15814;SDS011;8008;50.024;8.172;2022-12-18T05:37:00;112.00;;;16.70;;
15814;SDS011;8008;50.024;8.172;2022-12-18T05:39:29;75.17;;;16.90;;
15814;SDS011;8008;50.024;8.172;2022-12-18T05:41:57;57.20;;;16.20;;
15814;SDS011;8008;50.024;8.172;2022-12-18T05:44:25;84.90;;;17.10;;
15814;SDS011;8008;50.024;8.172;2022-12-18T05:46:53;57.93;;;16.47;;
15814;SDS011;8008;50.024;8.172;2022-12-18T05:49:21;58.57;;;15.13;;
15814;SDS011;8008;50.024;8.172;2022-12-18T05:51:49;54.80;;;14.90;;
15814;SDS011;8008;50.024;8.172;2022-12-18T05:54:17;59.50;;;15.27;;
15814;SDS011;8008;50.024;8.172;2022-12-18T05:56:46;68.87;;;17.07;;
15814;SDS011;8008;50.024;8.172;2022-12-18T05:59:14;42.23;;;15.23;;
15814;SDS011;8008;50.024;8.172;2022-12-18T06:01:42;45.83;;;15.50;;
15814;SDS011;8008;50.024;8.172;2022-12-18T06:04:10;38.83;;;14.67;;
15814;SDS011;8008;50.024;8.172;2022-12-18T06:06:38;76.37;;;15.83;;
15814;SDS011;8008;50.024;8.172;2022-12-18T06:09:06;41.23;;;15.70;;
15814;SDS011;8008;50.024;8.172;2022-12-18T06:11:36;72.77;;;16.93;;
15814;SDS011;8008;50.024;8.172;2022-12-18T06:14:06;65.77;;;17.13;;
15814;SDS011;8008;50.024;8.172;2022-12-18T06:16:34;57.97;;;17.83;;
15814;SDS011;8008;50.024;8.172;2022-12-18T06:19:02;70.97;;;18.13;;
15814;SDS011;8008;50.024;8.172;2022-12-18T06:21:32;76.60;;;18.77;;
15814;SDS011;8008;50.024;8.172;2022-12-18T06:24:01;177.60;;;19.50;;
15814;SDS011;8008;50.024;8.172;2022-12-18T06:26:29;94.90;;;17.90;;
15814;SDS011;8008;50.024;8.172;2022-12-18T06:28:57;89.73;;;18.40;;
15814;SDS011;8008;50.024;8.172;2022-12-18T06:31:26;101.73;;;19.53;;
15814;SDS011;8008;50.024;8.172;2022-12-18T06:33:54;91.50;;;18.33;;
15814;SDS011;8008;50.024;8.172;2022-12-18T06:36:22;119.60;;;19.17;;
15814;SDS011;8008;50.024;8.172;2022-12-18T06:38:50;137.93;;;19.47;;
15814;SDS011;8008;50.024;8.172;2022-12-18T06:41:19;136.23;;;19.37;;
15814;SDS011;8008;50.024;8.172;2022-12-18T06:43:48;156.63;;;18.63;;
15814;SDS011;8008;50.024;8.172;2022-12-18T06:46:16;91.97;;;19.00;;
15814;SDS011;8008;50.024;8.172;2022-12-18T06:48:47;74.23;;;17.00;;
15814;SDS011;8008;50.024;8.172;2022-12-18T06:51:19;57.97;;;16.17;;
15814;SDS011;8008;50.024;8.172;2022-12-18T06:53:48;57.43;;;17.60;;
15814;SDS011;8008;50.024;8.172;2022-12-18T06:56:16;48.77;;;16.67;;
15814;SDS011;8008;50.024;8.172;2022-12-18T06:58:44;85.00;;;17.97;;
15814;SDS011;8008;50.024;8.172;2022-12-18T07:01:12;66.40;;;17.70;;
15814;SDS011;8008;50.024;8.172;2022-12-18T07:03:41;46.53;;;16.27;;
15814;SDS011;8008;50.024;8.172;2022-12-18T07:06:15;56.60;;;16.17;;
15814;SDS011;8008;50.024;8.172;2022-12-18T07:08:44;52.80;;;16.47;;
15814;SDS011;8008;50.024;8.172;2022-12-18T07:11:13;71.60;;;16.53;;
15814;SDS011;8008;50.024;8.172;2022-12-18T07:13:41;58.17;;;16.30;;
15814;SDS011;8008;50.024;8.172;2022-12-18T07:16:10;59.63;;;17.30;;
15814;SDS011;8008;50.024;8.172;2022-12-18T07:18:47;54.13;;;17.53;;
15814;SDS011;8008;50.024;8.172;2022-12-18T07:21:17;59.80;;;15.97;;
15814;SDS011;8008;50.024;8.172;2022-12-18T07:23:46;54.50;;;15.20;;
15814;SDS011;8008;50.024;8.172;2022-12-18T07:26:15;87.03;;;17.47;;
15814;SDS011;8008;50.024;8.172;2022-12-18T07:28:44;56.67;;;17.90;;
15814;SDS011;8008;50.024;8.172;2022-12-18T07:31:13;49.03;;;18.87;;
15814;SDS011;8008;50.024;8.172;2022-12-18T07:33:44;75.03;;;18.30;;
15814;SDS011;8008;50.024;8.172;2022-12-18T07:36:13;68.77;;;17.47;;
15814;SDS011;8008;50.024;8.172;2022-12-18T07:38:42;55.20;;;17.03;;
15814;SDS011;8008;50.024;8.172;2022-12-18T07:41:13;54.67;;;16.53;;
15814;SDS011;8008;50.024;8.172;2022-12-18T07:43:41;52.53;;;15.43;;
15814;SDS011;8008;50.024;8.172;2022-12-18T07:46:10;49.27;;;15.90;;
15814;SDS011;8008;50.024;8.172;2022-12-18T07:48:40;58.37;;;16.67;;
15814;SDS011;8008;50.024;8.172;2022-12-18T07:51:09;42.43;;;16.63;;
15814;SDS011;8008;50.024;8.172;2022-12-18T07:53:37;56.77;;;16.90;;
15814;SDS011;8008;50.024;8.172;2022-12-18T07:56:08;50.63;;;16.83;;
15814;SDS011;8008;50.024;8.172;2022-12-18T07:58:55;57.77;;;15.97;;
15814;SDS011;8008;50.024;8.172;2022-12-18T08:01:23;44.90;;;16.50;;
15814;SDS011;8008;50.024;8.172;2022-12-18T08:03:51;50.90;;;16.13;;
15814;SDS011;8008;50.024;8.172;2022-12-18T08:06:19;76.28;;;20.25;;
15814;SDS011;8008;50.024;8.172;2022-12-18T08:08:50;82.55;;;22.15;;
15814;SDS011;8008;50.024;8.172;2022-12-18T08:11:20;52.17;;;18.70;;
15814;SDS011;8008;50.024;8.172;2022-12-18T08:13:48;68.07;;;19.37;;
15814;SDS011;8008;50.024;8.172;2022-12-18T08:16:17;87.63;;;18.33;;
15814;SDS011;8008;50.024;8.172;2022-12-18T08:18:46;87.93;;;17.63;;
15814;SDS011;8008;50.024;8.172;2022-12-18T08:21:15;53.43;;;21.43;;
15814;SDS011;8008;50.024;8.172;2022-12-18T08:23:46;75.60;;;20.00;;
15814;SDS011;8008;50.024;8.172;2022-12-18T08:26:16;56.37;;;18.97;;
15814;SDS011;8008;50.024;8.172;2022-12-18T08:28:47;49.83;;;18.40;;
15814;SDS011;8008;50.024;8.172;2022-12-18T08:31:16;49.03;;;18.57;;
15814;SDS011;8008;50.024;8.172;2022-12-18T08:33:44;43.10;;;19.07;;
15814;SDS011;8008;50.024;8.172;2022-12-18T08:36:12;53.07;;;21.80;;
15814;SDS011;8008;50.024;8.172;2022-12-18T08:38:40;51.17;;;20.53;;
15814;SDS011;8008;50.024;8.172;2022-12-18T08:41:09;52.73;;;19.47;;
15814;SDS011;8008;50.024;8.172;2022-12-18T08:43:40;49.00;;;20.73;;
15814;SDS011;8008;50.024;8.172;2022-12-18T08:46:31;44.80;;;19.10;;
15814;SDS011;8008;50.024;8.172;2022-12-18T08:49:01;43.47;;;18.43;;
15814;SDS011;8008;50.024;8.172;2022-12-18T08:51:29;49.17;;;18.37;;
15814;SDS011;8008;50.024;8.172;2022-12-18T08:53:57;42.03;;;18.53;;
15814;SDS011;8008;50.024;8.172;2022-12-18T08:56:25;43.87;;;18.77;;
15814;SDS011;8008;50.024;8.172;2022-12-18T08:58:53;48.50;;;19.40;;
15814;SDS011;8008;50.024;8.172;2022-12-18T09:01:21;42.23;;;17.27;;
15814;SDS011;8008;50.024;8.172;2022-12-18T09:03:51;38.30;;;18.00;;
15814;SDS011;8008;50.024;8.172;2022-12-18T09:06:20;44.83;;;19.53;;
15814;SDS011;8008;50.024;8.172;2022-12-18T09:08:49;46.27;;;20.83;;
15814;SDS011;8008;50.024;8.172;2022-12-18T09:11:19;43.93;;;19.03;;
15814;SDS011;8008;50.024;8.172;2022-12-18T09:13:48;41.60;;;18.60;;
15814;SDS011;8008;50.024;8.172;2022-12-18T09:16:17;50.83;;;19.37;;
15814;SDS011;8008;50.024;8.172;2022-12-18T09:18:46;45.13;;;18.50;;
15814;SDS011;8008;50.024;8.172;2022-12-18T09:21:16;49.53;;;19.37;;
15814;SDS011;8008;50.024;8.172;2022-12-18T09:23:48;48.13;;;20.40;;
15814;SDS011;8008;50.024;8.172;2022-12-18T09:26:17;44.20;;;18.87;;
15814;SDS011;8008;50.024;8.172;2022-12-18T09:28:45;48.27;;;18.37;;
15814;SDS011;8008;50.024;8.172;2022-12-18T09:31:13;45.43;;;18.97;;
15814;SDS011;8008;50.024;8.172;2022-12-18T09:33:41;46.50;;;19.03;;
15814;SDS011;8008;50.024;8.172;2022-12-18T09:36:09;42.47;;;18.50;;
15814;SDS011;8008;50.024;8.172;2022-12-18T09:38:40;54.17;;;19.93;;
15814;SDS011;8008;50.024;8.172;2022-12-18T09:41:14;46.30;;;21.70;;
15814;SDS011;8008;50.024;8.172;2022-12-18T09:43:51;51.10;;;20.53;;
15814;SDS011;8008;50.024;8.172;2022-12-18T09:46:23;55.30;;;22.53;;
15814;SDS011;8008;50.024;8.172;2022-12-18T09:48:56;41.47;;;17.50;;
15814;SDS011;8008;50.024;8.172;2022-12-18T09:51:28;37.47;;;16.63;;
15814;SDS011;8008;50.024;8.172;2022-12-18T09:54:03;31.60;;;15.33;;
15814;SDS011;8008;50.024;8.172;2022-12-18T09:56:34;35.43;;;16.03;;
15814;SDS011;8008;50.024;8.172;2022-12-18T09:59:04;35.07;;;16.23;;
15814;SDS011;8008;50.024;8.172;2022-12-18T10:01:32;34.77;;;15.90;;
15814;SDS011;8008;50.024;8.172;2022-12-18T10:04:09;34.03;;;15.77;;
15814;SDS011;8008;50.024;8.172;2022-12-18T10:06:38;30.77;;;15.13;;
15814;SDS011;8008;50.024;8.172;2022-12-18T10:09:13;29.27;;;14.70;;
15814;SDS011;8008;50.024;8.172;2022-12-18T10:11:48;30.37;;;14.87;;
15814;SDS011;8008;50.024;8.172;2022-12-18T10:14:23;32.33;;;15.00;;
15814;SDS011;8008;50.024;8.172;2022-12-18T10:16:59;33.53;;;15.43;;
15814;SDS011;8008;50.024;8.172;2022-12-18T10:19:36;33.67;;;15.23;;
15814;SDS011;8008;50.024;8.172;2022-12-18T10:22:19;30.57;;;16.00;;
15814;SDS011;8008;50.024;8.172;2022-12-18T10:24:57;32.53;;;15.93;;
15814;SDS011;8008;50.024;8.172;2022-12-18T10:27:30;32.73;;;15.67;;
15814;SDS011;8008;50.024;8.172;2022-12-18T10:29:58;33.67;;;16.07;;
15814;SDS011;8008;50.024;8.172;2022-12-18T10:32:29;31.83;;;15.83;;
15814;SDS011;8008;50.024;8.172;2022-12-18T10:34:57;34.87;;;16.97;;
15814;SDS011;8008;50.024;8.172;2022-12-18T10:37:27;30.47;;;15.57;;
15814;SDS011;8008;50.024;8.172;2022-12-18T10:40:07;37.50;;;16.33;;
15814;SDS011;8008;50.024;8.172;2022-12-18T10:42:43;33.73;;;16.33;;
15814;SDS011;8008;50.024;8.172;2022-12-18T10:45:12;32.73;;;15.57;;
15814;SDS011;8008;50.024;8.172;2022-12-18T10:47:43;34.13;;;16.43;;
15814;SDS011;8008;50.024;8.172;2022-12-18T10:50:18;32.83;;;16.87;;
15814;SDS011;8008;50.024;8.172;2022-12-18T10:52:58;33.50;;;16.80;;
15814;SDS011;8008;50.024;8.172;2022-12-18T10:55:30;36.03;;;17.87;;
15814;SDS011;8008;50.024;8.172;2022-12-18T10:58:13;31.80;;;16.93;;
15814;SDS011;8008;50.024;8.172;2022-12-18T11:01:02;43.43;;;19.23;;
15814;SDS011;8008;50.024;8.172;2022-12-18T11:03:36;46.77;;;21.33;;
15814;SDS011;8008;50.024;8.172;2022-12-18T11:06:07;36.67;;;18.33;;
15814;SDS011;8008;50.024;8.172;2022-12-18T11:08:36;54.93;;;24.33;;
15814;SDS011;8008;50.024;8.172;2022-12-18T11:11:22;45.70;;;20.97;;
15814;SDS011;8008;50.024;8.172;2022-12-18T11:13:57;50.87;;;22.93;;
15814;SDS011;8008;50.024;8.172;2022-12-18T11:16:28;59.07;;;26.10;;
15814;SDS011;8008;50.024;8.172;2022-12-18T11:19:09;58.53;;;25.00;;
15814;SDS011;8008;50.024;8.172;2022-12-18T11:21:51;62.07;;;26.33;;
15814;SDS011;8008;50.024;8.172;2022-12-18T11:24:20;48.53;;;22.80;;
15814;SDS011;8008;50.024;8.172;2022-12-18T11:26:55;48.63;;;23.03;;
15814;SDS011;8008;50.024;8.172;2022-12-18T11:29:28;39.70;;;20.23;;
15814;SDS011;8008;50.024;8.172;2022-12-18T11:32:22;40.07;;;19.00;;
15814;SDS011;8008;50.024;8.172;2022-12-18T11:34:58;41.30;;;19.57;;
15814;SDS011;8008;50.024;8.172;2022-12-18T11:37:31;38.73;;;18.93;;
15814;SDS011;8008;50.024;8.172;2022-12-18T11:40:01;39.00;;;18.77;;
15814;SDS011;8008;50.024;8.172;2022-12-18T11:42:39;36.83;;;18.23;;
15814;SDS011;8008;50.024;8.172;2022-12-18T11:45:20;44.93;;;20.97;;
15814;SDS011;8008;50.024;8.172;2022-12-18T11:47:55;47.27;;;21.80;;
15814;SDS011;8008;50.024;8.172;2022-12-18T11:50:26;39.83;;;19.83;;
15814;SDS011;8008;50.024;8.172;2022-12-18T11:53:00;34.43;;;17.97;;
15814;SDS011;8008;50.024;8.172;2022-12-18T11:55:35;36.23;;;17.43;;
15814;SDS011;8008;50.024;8.172;2022-12-18T11:58:14;39.13;;;18.00;;
15814;SDS011;8008;50.024;8.172;2022-12-18T12:00:59;38.17;;;18.70;;
15814;SDS011;8008;50.024;8.172;2022-12-18T12:03:39;40.37;;;18.97;;
15814;SDS011;8008;50.024;8.172;2022-12-18T12:06:21;39.00;;;18.53;;
15814;SDS011;8008;50.024;8.172;2022-12-18T12:09:02;35.33;;;18.17;;
15814;SDS011;8008;50.024;8.172;2022-12-18T12:11:39;34.43;;;18.30;;
15814;SDS011;8008;50.024;8.172;2022-12-18T12:14:22;37.77;;;18.73;;
15814;SDS011;8008;50.024;8.172;2022-12-18T12:17:03;38.97;;;18.10;;
15814;SDS011;8008;50.024;8.172;2022-12-18T12:19:42;38.43;;;19.97;;
15814;SDS011;8008;50.024;8.172;2022-12-18T12:22:17;36.17;;;18.50;;
15814;SDS011;8008;50.024;8.172;2022-12-18T12:24:56;37.00;;;18.17;;
15814;SDS011;8008;50.024;8.172;2022-12-18T12:27:34;38.70;;;18.33;;
15814;SDS011;8008;50.024;8.172;2022-12-18T12:30:16;35.50;;;19.07;;
15814;SDS011;8008;50.024;8.172;2022-12-18T12:32:55;37.50;;;18.37;;
15814;SDS011;8008;50.024;8.172;2022-12-18T12:35:36;38.20;;;18.80;;
15814;SDS011;8008;50.024;8.172;2022-12-18T12:38:12;40.43;;;19.57;;
15814;SDS011;8008;50.024;8.172;2022-12-18T12:40:44;41.50;;;19.43;;
15814;SDS011;8008;50.024;8.172;2022-12-18T12:43:28;38.10;;;20.27;;
15814;SDS011;8008;50.024;8.172;2022-12-18T12:46:04;38.60;;;18.40;;
15814;SDS011;8008;50.024;8.172;2022-12-18T12:48:35;42.20;;;21.43;;
15814;SDS011;8008;50.024;8.172;2022-12-18T12:51:10;39.70;;;19.73;;
15814;SDS011;8008;50.024;8.172;2022-12-18T12:53:43;36.57;;;18.80;;
15814;SDS011;8008;50.024;8.172;2022-12-18T12:56:13;39.87;;;20.67;;
15814;SDS011;8008;50.024;8.172;2022-12-18T12:58:50;37.80;;;19.00;;
15814;SDS011;8008;50.024;8.172;2022-12-18T13:01:31;44.90;;;19.70;;
15814;SDS011;8008;50.024;8.172;2022-12-18T13:04:08;44.00;;;19.50;;
15814;SDS011;8008;50.024;8.172;2022-12-18T13:06:44;37.17;;;19.87;;
15814;SDS011;8008;50.024;8.172;2022-12-18T13:09:17;39.30;;;21.07;;
15814;SDS011;8008;50.024;8.172;2022-12-18T13:11:47;37.80;;;18.87;;
15814;SDS011;8008;50.024;8.172;2022-12-18T13:14:34;41.33;;;20.30;;
15814;SDS011;8008;50.024;8.172;2022-12-18T13:20:03;43.57;;;19.67;;
15814;SDS011;8008;50.024;8.172;2022-12-18T13:22:40;42.23;;;19.47;;
15814;SDS011;8008;50.024;8.172;2022-12-18T13:25:26;39.37;;;19.63;;
15814;SDS011;8008;50.024;8.172;2022-12-18T13:28:00;39.83;;;19.53;;
15814;SDS011;8008;50.024;8.172;2022-12-18T13:30:50;42.03;;;19.43;;
15814;SDS011;8008;50.024;8.172;2022-12-18T13:36:53;41.93;;;19.50;;
15814;SDS011;8008;50.024;8.172;2022-12-18T13:39:30;39.97;;;18.70;;
15814;SDS011;8008;50.024;8.172;2022-12-18T13:45:39;48.17;;;19.67;;
15814;SDS011;8008;50.024;8.172;2022-12-18T13:48:22;38.80;;;18.63;;
15814;SDS011;8008;50.024;8.172;2022-12-18T13:50:55;42.60;;;18.57;;
15814;SDS011;8008;50.024;8.172;2022-12-18T13:53:26;44.10;;;19.90;;
15814;SDS011;8008;50.024;8.172;2022-12-18T13:55:57;44.70;;;19.57;;
15814;SDS011;8008;50.024;8.172;2022-12-18T13:58:26;41.60;;;19.17;;
15814;SDS011;8008;50.024;8.172;2022-12-18T14:00:54;43.60;;;19.00;;
15814;SDS011;8008;50.024;8.172;2022-12-18T14:03:23;43.57;;;19.27;;
15814;SDS011;8008;50.024;8.172;2022-12-18T14:05:55;40.10;;;18.03;;
15814;SDS011;8008;50.024;8.172;2022-12-18T14:08:29;42.50;;;18.83;;
15814;SDS011;8008;50.024;8.172;2022-12-18T14:11:03;42.87;;;19.07;;
15814;SDS011;8008;50.024;8.172;2022-12-18T14:13:37;42.57;;;18.83;;
15814;SDS011;8008;50.024;8.172;2022-12-18T14:16:11;44.87;;;18.50;;
15814;SDS011;8008;50.024;8.172;2022-12-18T14:18:43;41.67;;;18.30;;
15814;SDS011;8008;50.024;8.172;2022-12-18T14:21:19;46.13;;;19.20;;
15814;SDS011;8008;50.024;8.172;2022-12-18T14:23:57;43.17;;;18.93;;
15814;SDS011;8008;50.024;8.172;2022-12-18T14:26:31;42.27;;;18.63;;
15814;SDS011;8008;50.024;8.172;2022-12-18T14:29:00;42.60;;;18.50;;
15814;SDS011;8008;50.024;8.172;2022-12-18T14:31:42;45.13;;;18.47;;
15814;SDS011;8008;50.024;8.172;2022-12-18T14:34:14;39.30;;;17.87;;
15814;SDS011;8008;50.024;8.172;2022-12-18T14:36:52;44.60;;;18.70;;
15814;SDS011;8008;50.024;8.172;2022-12-18T14:39:22;47.03;;;19.03;;
15814;SDS011;8008;50.024;8.172;2022-12-18T14:41:52;43.80;;;18.13;;
15814;SDS011;8008;50.024;8.172;2022-12-18T14:44:21;45.10;;;18.40;;
15814;SDS011;8008;50.024;8.172;2022-12-18T14:46:49;48.00;;;19.63;;
15814;SDS011;8008;50.024;8.172;2022-12-18T14:49:20;45.53;;;19.23;;
15814;SDS011;8008;50.024;8.172;2022-12-18T14:51:53;43.07;;;18.50;;
15814;SDS011;8008;50.024;8.172;2022-12-18T14:54:23;46.67;;;19.00;;
15814;SDS011;8008;50.024;8.172;2022-12-18T14:56:54;44.97;;;18.60;;
15814;SDS011;8008;50.024;8.172;2022-12-18T14:59:27;41.73;;;17.90;;
15814;SDS011;8008;50.024;8.172;2022-12-18T15:01:57;41.17;;;17.77;;
15814;SDS011;8008;50.024;8.172;2022-12-18T15:04:34;39.57;;;16.67;;
15814;SDS011;8008;50.024;8.172;2022-12-18T15:07:13;44.40;;;18.77;;
15814;SDS011;8008;50.024;8.172;2022-12-18T15:09:44;43.23;;;18.43;;
15814;SDS011;8008;50.024;8.172;2022-12-18T15:12:32;39.27;;;17.43;;
15814;SDS011;8008;50.024;8.172;2022-12-18T15:15:03;39.90;;;18.00;;
15814;SDS011;8008;50.024;8.172;2022-12-18T15:17:31;46.80;;;19.40;;
15814;SDS011;8008;50.024;8.172;2022-12-18T15:20:00;43.67;;;17.73;;
15814;SDS011;8008;50.024;8.172;2022-12-18T15:22:33;42.70;;;18.13;;
15814;SDS011;8008;50.024;8.172;2022-12-18T15:25:03;50.40;;;18.47;;
15814;SDS011;8008;50.024;8.172;2022-12-18T15:27:53;48.13;;;19.60;;
15814;SDS011;8008;50.024;8.172;2022-12-18T15:30:22;45.00;;;18.90;;
15814;SDS011;8008;50.024;8.172;2022-12-18T15:32:51;47.17;;;18.73;;
15814;SDS011;8008;50.024;8.172;2022-12-18T15:35:21;43.60;;;18.27;;
15814;SDS011;8008;50.024;8.172;2022-12-18T15:37:51;44.60;;;18.23;;
15814;SDS011;8008;50.024;8.172;2022-12-18T15:40:22;45.70;;;17.90;;
15814;SDS011;8008;50.024;8.172;2022-12-18T15:42:51;45.20;;;19.47;;
15814;SDS011;8008;50.024;8.172;2022-12-18T15:45:38;48.10;;;19.20;;
15814;SDS011;8008;50.024;8.172;2022-12-18T15:48:11;42.63;;;18.23;;
15814;SDS011;8008;50.024;8.172;2022-12-18T15:50:46;43.70;;;18.53;;
15814;SDS011;8008;50.024;8.172;2022-12-18T15:53:16;45.10;;;18.50;;
15814;SDS011;8008;50.024;8.172;2022-12-18T15:55:44;39.67;;;17.27;;
15814;SDS011;8008;50.024;8.172;2022-12-18T15:58:30;40.90;;;18.10;;
15814;SDS011;8008;50.024;8.172;2022-12-18T16:00:59;40.83;;;17.83;;
15814;SDS011;8008;50.024;8.172;2022-12-18T16:03:29;45.43;;;17.33;;
15814;SDS011;8008;50.024;8.172;2022-12-18T16:05:57;43.67;;;17.50;;
15814;SDS011;8008;50.024;8.172;2022-12-18T16:08:30;39.77;;;17.63;;
15814;SDS011;8008;50.024;8.172;2022-12-18T16:10:59;45.23;;;17.70;;
15814;SDS011;8008;50.024;8.172;2022-12-18T16:13:27;39.47;;;17.07;;
15814;SDS011;8008;50.024;8.172;2022-12-18T16:15:55;43.50;;;18.37;;
15814;SDS011;8008;50.024;8.172;2022-12-18T16:18:23;45.27;;;17.40;;
15814;SDS011;8008;50.024;8.172;2022-12-18T16:20:51;42.57;;;17.30;;
15814;SDS011;8008;50.024;8.172;2022-12-18T16:23:19;43.00;;;17.80;;
15814;SDS011;8008;50.024;8.172;2022-12-18T16:25:48;41.73;;;17.83;;
15814;SDS011;8008;50.024;8.172;2022-12-18T16:30:56;42.03;;;17.20;;
15814;SDS011;8008;50.024;8.172;2022-12-18T16:33:24;43.20;;;17.80;;
15814;SDS011;8008;50.024;8.172;2022-12-18T16:35:53;41.73;;;18.20;;
15814;SDS011;8008;50.024;8.172;2022-12-18T16:38:20;42.00;;;17.27;;
15814;SDS011;8008;50.024;8.172;2022-12-18T16:40:50;43.70;;;17.07;;
15814;SDS011;8008;50.024;8.172;2022-12-18T16:43:35;38.13;;;17.97;;
15814;SDS011;8008;50.024;8.172;2022-12-18T16:46:03;45.60;;;19.30;;
15814;SDS011;8008;50.024;8.172;2022-12-18T16:48:32;45.70;;;18.87;;
15814;SDS011;8008;50.024;8.172;2022-12-18T16:51:01;43.03;;;19.37;;
15814;SDS011;8008;50.024;8.172;2022-12-18T16:53:31;42.70;;;18.57;;
15814;SDS011;8008;50.024;8.172;2022-12-18T16:56:01;43.63;;;18.83;;
15814;SDS011;8008;50.024;8.172;2022-12-18T16:58:30;44.00;;;17.70;;
15814;SDS011;8008;50.024;8.172;2022-12-18T17:00:58;40.57;;;17.57;;
15814;SDS011;8008;50.024;8.172;2022-12-18T17:03:26;41.37;;;16.77;;
15814;SDS011;8008;50.024;8.172;2022-12-18T17:05:54;40.73;;;17.30;;
15814;SDS011;8008;50.024;8.172;2022-12-18T17:08:22;40.17;;;16.97;;
15814;SDS011;8008;50.024;8.172;2022-12-18T17:10:49;42.30;;;17.43;;
15814;SDS011;8008;50.024;8.172;2022-12-18T17:13:19;41.57;;;16.47;;
15814;SDS011;8008;50.024;8.172;2022-12-18T17:15:51;38.70;;;17.37;;
15814;SDS011;8008;50.024;8.172;2022-12-18T17:18:19;41.53;;;17.57;;
15814;SDS011;8008;50.024;8.172;2022-12-18T17:20:47;39.03;;;16.93;;
15814;SDS011;8008;50.024;8.172;2022-12-18T17:23:15;42.90;;;18.57;;
15814;SDS011;8008;50.024;8.172;2022-12-18T17:25:43;43.27;;;18.80;;
15814;SDS011;8008;50.024;8.172;2022-12-18T17:28:11;47.33;;;18.57;;
15814;SDS011;8008;50.024;8.172;2022-12-18T17:30:40;50.27;;;21.37;;
15814;SDS011;8008;50.024;8.172;2022-12-18T17:33:08;42.30;;;19.00;;
15814;SDS011;8008;50.024;8.172;2022-12-18T17:35:36;48.30;;;20.73;;
15814;SDS011;8008;50.024;8.172;2022-12-18T17:38:03;42.57;;;19.00;;
15814;SDS011;8008;50.024;8.172;2022-12-18T17:40:31;43.63;;;19.03;;
15814;SDS011;8008;50.024;8.172;2022-12-18T17:43:00;39.97;;;18.33;;
15814;SDS011;8008;50.024;8.172;2022-12-18T17:45:28;45.87;;;19.17;;
15814;SDS011;8008;50.024;8.172;2022-12-18T17:47:58;42.63;;;18.43;;
15814;SDS011;8008;50.024;8.172;2022-12-18T17:50:26;42.80;;;18.47;;
15814;SDS011;8008;50.024;8.172;2022-12-18T17:52:54;43.50;;;19.03;;
15814;SDS011;8008;50.024;8.172;2022-12-18T17:55:23;46.87;;;19.33;;
15814;SDS011;8008;50.024;8.172;2022-12-18T17:57:51;41.97;;;18.97;;
15814;SDS011;8008;50.024;8.172;2022-12-18T18:00:19;43.43;;;18.10;;
15814;SDS011;8008;50.024;8.172;2022-12-18T18:02:47;40.13;;;17.83;;
15814;SDS011;8008;50.024;8.172;2022-12-18T18:05:17;42.27;;;17.27;;
15814;SDS011;8008;50.024;8.172;2022-12-18T18:07:45;42.97;;;17.73;;
15814;SDS011;8008;50.024;8.172;2022-12-18T18:10:15;47.10;;;17.93;;
15814;SDS011;8008;50.024;8.172;2022-12-18T18:12:43;46.30;;;18.80;;
15814;SDS011;8008;50.024;8.172;2022-12-18T18:15:28;42.90;;;18.10;;
15814;SDS011;8008;50.024;8.172;2022-12-18T18:17:56;38.30;;;16.97;;
15814;SDS011;8008;50.024;8.172;2022-12-18T18:20:25;42.27;;;17.20;;
15814;SDS011;8008;50.024;8.172;2022-12-18T18:22:55;40.60;;;17.57;;
15814;SDS011;8008;50.024;8.172;2022-12-18T18:25:23;41.87;;;18.90;;
15814;SDS011;8008;50.024;8.172;2022-12-18T18:27:51;43.07;;;19.17;;
15814;SDS011;8008;50.024;8.172;2022-12-18T18:30:19;43.40;;;19.63;;
15814;SDS011;8008;50.024;8.172;2022-12-18T18:32:47;46.80;;;19.93;;
15814;SDS011;8008;50.024;8.172;2022-12-18T18:35:18;49.13;;;21.43;;
15814;SDS011;8008;50.024;8.172;2022-12-18T18:38:07;54.27;;;20.63;;
15814;SDS011;8008;50.024;8.172;2022-12-18T18:40:35;48.87;;;21.37;;
15814;SDS011;8008;50.024;8.172;2022-12-18T18:43:03;50.33;;;21.23;;
15814;SDS011;8008;50.024;8.172;2022-12-18T18:45:32;48.77;;;21.43;;
15814;SDS011;8008;50.024;8.172;2022-12-18T18:48:00;43.97;;;18.03;;
15814;SDS011;8008;50.024;8.172;2022-12-18T18:50:27;40.50;;;17.73;;
15814;SDS011;8008;50.024;8.172;2022-12-18T18:52:55;37.40;;;17.90;;
15814;SDS011;8008;50.024;8.172;2022-12-18T18:55:25;42.47;;;18.07;;
15814;SDS011;8008;50.024;8.172;2022-12-18T18:57:52;41.37;;;18.17;;
15814;SDS011;8008;50.024;8.172;2022-12-18T19:00:20;45.10;;;19.50;;
15814;SDS011;8008;50.024;8.172;2022-12-18T19:02:48;43.63;;;19.10;;
15814;SDS011;8008;50.024;8.172;2022-12-18T19:05:21;45.93;;;19.67;;
15814;SDS011;8008;50.024;8.172;2022-12-18T19:07:49;53.37;;;22.77;;
15814;SDS011;8008;50.024;8.172;2022-12-18T19:10:17;50.33;;;22.10;;
15814;SDS011;8008;50.024;8.172;2022-12-18T19:12:46;59.57;;;25.60;;